Felchville, Vermont
Current Conditions -  °F | °C
As of 11:17 AM on Sunday 21 Dec 2014 (Local Time) from KVSF Reporting Station
Light Snow Light Snow  
Wind Chill: 27°   Ceiling: 4300
Heat Index: 27°   Visibility: 2mi
Dew Point: 24°   Wind: 0mph
Humidity: 89%   Direction: NA
Pressure: 30.32"   Gusts: NA
Location:  43.4984°N, 72.5943°W
Report Text: KVSF 211617Z AUTO 00000KT 2SM -SN BR OVC043 M03/M04 A3032 RMK AO2 P0000 T10281044 TSNO
Loading
Personal Weather Stations






























Interactive Weather Map New forecast layout! Learn more

10-Day Weather Forecast

Advertisements
Track Severe Weather on mobile